sensor_id;sensor_type;location;lat;lon;timestamp;temperature;humidity
28546;DHT22;15749;49.606;8.738;2023-07-08T00:00:32;26.90;70.30
28546;DHT22;15749;49.606;8.738;2023-07-08T00:03:03;26.90;70.30
28546;DHT22;15749;49.606;8.738;2023-07-08T00:05:32;26.90;70.30
28546;DHT22;15749;49.606;8.738;2023-07-08T00:08:03;26.90;70.50
28546;DHT22;15749;49.606;8.738;2023-07-08T00:10:34;26.90;70.60
28546;DHT22;15749;49.606;8.738;2023-07-08T00:13:03;26.90;70.30
28546;DHT22;15749;49.606;8.738;2023-07-08T00:15:33;26.90;70.50
28546;DHT22;15749;49.606;8.738;2023-07-08T00:18:10;26.80;70.40
28546;DHT22;15749;49.606;8.738;2023-07-08T00:20:43;26.80;70.50
28546;DHT22;15749;49.606;8.738;2023-07-08T00:23:15;26.80;70.30
28546;DHT22;15749;49.606;8.738;2023-07-08T00:25:46;26.80;70.30
28546;DHT22;15749;49.606;8.738;2023-07-08T00:28:17;26.80;70.50
28546;DHT22;15749;49.606;8.738;2023-07-08T00:30:48;26.70;70.70
28546;DHT22;15749;49.606;8.738;2023-07-08T00:33:21;26.70;70.70
28546;DHT22;15749;49.606;8.738;2023-07-08T00:35:53;26.70;70.80
28546;DHT22;15749;49.606;8.738;2023-07-08T00:38:24;26.70;70.70
28546;DHT22;15749;49.606;8.738;2023-07-08T00:41:06;26.70;70.50
28546;DHT22;15749;49.606;8.738;2023-07-08T00:43:41;26.60;70.90
28546;DHT22;15749;49.606;8.738;2023-07-08T00:46:18;26.60;70.30
28546;DHT22;15749;49.606;8.738;2023-07-08T00:49:00;26.60;70.50
28546;DHT22;15749;49.606;8.738;2023-07-08T00:51:33;26.60;70.70
28546;DHT22;15749;49.606;8.738;2023-07-08T00:54:08;26.60;70.70
28546;DHT22;15749;49.606;8.738;2023-07-08T00:56:43;26.60;70.90
28546;DHT22;15749;49.606;8.738;2023-07-08T00:59:20;26.50;70.70
28546;DHT22;15749;49.606;8.738;2023-07-08T01:01:52;26.50;70.80
28546;DHT22;15749;49.606;8.738;2023-07-08T01:04:25;26.50;70.70
28546;DHT22;15749;49.606;8.738;2023-07-08T01:07:01;26.50;70.80
28546;DHT22;15749;49.606;8.738;2023-07-08T01:09:38;26.50;71.10
28546;DHT22;15749;49.606;8.738;2023-07-08T01:12:14;26.40;71.00
28546;DHT22;15749;49.606;8.738;2023-07-08T01:14:45;26.40;70.70
28546;DHT22;15749;49.606;8.738;2023-07-08T01:17:16;26.40;70.70
28546;DHT22;15749;49.606;8.738;2023-07-08T01:19:45;26.40;71.10
28546;DHT22;15749;49.606;8.738;2023-07-08T01:22:17;26.40;71.10
28546;DHT22;15749;49.606;8.738;2023-07-08T01:24:47;26.40;71.30
28546;DHT22;15749;49.606;8.738;2023-07-08T01:27:18;26.30;71.00
28546;DHT22;15749;49.606;8.738;2023-07-08T01:29:48;26.30;71.30
28546;DHT22;15749;49.606;8.738;2023-07-08T01:32:18;26.30;71.40
28546;DHT22;15749;49.606;8.738;2023-07-08T01:34:48;26.30;71.30
28546;DHT22;15749;49.606;8.738;2023-07-08T01:37:36;26.30;71.40
28546;DHT22;15749;49.606;8.738;2023-07-08T01:40:31;26.30;71.80
28546;DHT22;15749;49.606;8.738;2023-07-08T01:43:03;26.30;71.90
28546;DHT22;15749;49.606;8.738;2023-07-08T01:45:39;26.20;71.40
28546;DHT22;15749;49.606;8.738;2023-07-08T01:48:12;26.20;71.50
28546;DHT22;15749;49.606;8.738;2023-07-08T01:50:45;26.20;71.50
28546;DHT22;15749;49.606;8.738;2023-07-08T01:53:28;26.20;71.70
28546;DHT22;15749;49.606;8.738;2023-07-08T01:55:59;26.20;71.90
28546;DHT22;15749;49.606;8.738;2023-07-08T01:58:29;26.20;71.80
28546;DHT22;15749;49.606;8.738;2023-07-08T02:00:59;26.20;71.90
28546;DHT22;15749;49.606;8.738;2023-07-08T02:03:29;26.20;72.10
28546;DHT22;15749;49.606;8.738;2023-07-08T02:05:59;26.10;71.90
28546;DHT22;15749;49.606;8.738;2023-07-08T02:08:30;26.10;71.90
28546;DHT22;15749;49.606;8.738;2023-07-08T02:11:00;26.10;71.70
28546;DHT22;15749;49.606;8.738;2023-07-08T02:13:30;26.10;72.00
28546;DHT22;15749;49.606;8.738;2023-07-08T02:16:00;26.10;72.00
28546;DHT22;15749;49.606;8.738;2023-07-08T02:18:29;26.10;71.70
28546;DHT22;15749;49.606;8.738;2023-07-08T02:21:00;26.00;71.70
28546;DHT22;15749;49.606;8.738;2023-07-08T02:23:31;26.00;72.00
28546;DHT22;15749;49.606;8.738;2023-07-08T02:26:03;26.00;72.10
28546;DHT22;15749;49.606;8.738;2023-07-08T02:28:33;26.00;72.00
28546;DHT22;15749;49.606;8.738;2023-07-08T02:31:02;26.00;72.00
28546;DHT22;15749;49.606;8.738;2023-07-08T02:33:32;26.00;71.80
28546;DHT22;15749;49.606;8.738;2023-07-08T02:36:02;26.00;71.80
28546;DHT22;15749;49.606;8.738;2023-07-08T02:38:33;26.00;71.90
28546;DHT22;15749;49.606;8.738;2023-07-08T02:41:02;25.90;71.80
28546;DHT22;15749;49.606;8.738;2023-07-08T02:43:32;25.90;71.70
28546;DHT22;15749;49.606;8.738;2023-07-08T02:46:01;25.90;72.00
28546;DHT22;15749;49.606;8.738;2023-07-08T02:48:31;25.90;72.10
28546;DHT22;15749;49.606;8.738;2023-07-08T02:51:01;25.90;72.20
28546;DHT22;15749;49.606;8.738;2023-07-08T02:53:33;25.90;72.20
28546;DHT22;15749;49.606;8.738;2023-07-08T02:56:03;25.80;72.30
28546;DHT22;15749;49.606;8.738;2023-07-08T02:58:32;25.90;72.20
28546;DHT22;15749;49.606;8.738;2023-07-08T03:01:03;25.80;72.20
28546;DHT22;15749;49.606;8.738;2023-07-08T03:03:34;25.80;71.90
28546;DHT22;15749;49.606;8.738;2023-07-08T03:06:04;25.80;72.00
28546;DHT22;15749;49.606;8.738;2023-07-08T03:08:35;25.80;72.20
28546;DHT22;15749;49.606;8.738;2023-07-08T03:11:06;25.80;72.20
28546;DHT22;15749;49.606;8.738;2023-07-08T03:13:37;25.80;72.40
28546;DHT22;15749;49.606;8.738;2023-07-08T03:16:08;25.80;72.00
28546;DHT22;15749;49.606;8.738;2023-07-08T03:18:41;25.80;72.30
28546;DHT22;15749;49.606;8.738;2023-07-08T03:21:16;25.80;72.20
28546;DHT22;15749;49.606;8.738;2023-07-08T03:23:49;25.80;72.30
28546;DHT22;15749;49.606;8.738;2023-07-08T03:26:21;25.80;72.80
28546;DHT22;15749;49.606;8.738;2023-07-08T03:28:53;25.70;71.90
28546;DHT22;15749;49.606;8.738;2023-07-08T03:31:23;25.70;72.00
28546;DHT22;15749;49.606;8.738;2023-07-08T03:33:55;25.70;72.20
28546;DHT22;15749;49.606;8.738;2023-07-08T03:36:26;25.70;72.40
28546;DHT22;15749;49.606;8.738;2023-07-08T03:38:57;25.60;72.40
28546;DHT22;15749;49.606;8.738;2023-07-08T03:41:28;25.60;72.50
28546;DHT22;15749;49.606;8.738;2023-07-08T03:43:59;25.60;72.40
28546;DHT22;15749;49.606;8.738;2023-07-08T03:46:34;25.60;72.60
28546;DHT22;15749;49.606;8.738;2023-07-08T03:49:04;25.60;72.70
28546;DHT22;15749;49.606;8.738;2023-07-08T03:51:36;25.60;72.50
28546;DHT22;15749;49.606;8.738;2023-07-08T03:54:12;25.60;72.40
28546;DHT22;15749;49.606;8.738;2023-07-08T03:56:42;25.60;72.60
28546;DHT22;15749;49.606;8.738;2023-07-08T03:59:13;25.60;72.70
28546;DHT22;15749;49.606;8.738;2023-07-08T04:01:42;25.60;72.80
28546;DHT22;15749;49.606;8.738;2023-07-08T04:04:14;25.50;72.70
28546;DHT22;15749;49.606;8.738;2023-07-08T04:06:48;25.50;72.80
28546;DHT22;15749;49.606;8.738;2023-07-08T04:09:21;25.50;72.90
28546;DHT22;15749;49.606;8.738;2023-07-08T04:11:50;25.50;72.60
28546;DHT22;15749;49.606;8.738;2023-07-08T04:14:20;25.50;72.60
28546;DHT22;15749;49.606;8.738;2023-07-08T04:16:51;25.50;72.90
28546;DHT22;15749;49.606;8.738;2023-07-08T04:19:22;25.50;73.00
28546;DHT22;15749;49.606;8.738;2023-07-08T04:21:51;25.50;72.90
28546;DHT22;15749;49.606;8.738;2023-07-08T04:24:22;25.40;72.90
28546;DHT22;15749;49.606;8.738;2023-07-08T04:26:52;25.40;73.10
28546;DHT22;15749;49.606;8.738;2023-07-08T04:29:22;25.50;73.00
28546;DHT22;15749;49.606;8.738;2023-07-08T04:31:52;25.40;73.00
28546;DHT22;15749;49.606;8.738;2023-07-08T04:34:22;25.40;72.90
28546;DHT22;15749;49.606;8.738;2023-07-08T04:36:51;25.40;73.00
28546;DHT22;15749;49.606;8.738;2023-07-08T04:39:23;25.40;72.90
28546;DHT22;15749;49.606;8.738;2023-07-08T04:41:55;25.40;73.10
28546;DHT22;15749;49.606;8.738;2023-07-08T04:44:25;25.40;72.90
28546;DHT22;15749;49.606;8.738;2023-07-08T04:46:58;25.40;72.70
28546;DHT22;15749;49.606;8.738;2023-07-08T04:49:28;25.40;72.80
28546;DHT22;15749;49.606;8.738;2023-07-08T04:52:02;25.30;73.10
28546;DHT22;15749;49.606;8.738;2023-07-08T04:54:33;25.40;73.30
28546;DHT22;15749;49.606;8.738;2023-07-08T04:57:04;25.40;73.40
28546;DHT22;15749;49.606;8.738;2023-07-08T04:59:34;25.40;73.10
28546;DHT22;15749;49.606;8.738;2023-07-08T05:02:06;25.40;73.20
28546;DHT22;15749;49.606;8.738;2023-07-08T05:04:37;25.40;73.50
28546;DHT22;15749;49.606;8.738;2023-07-08T05:07:06;25.40;73.70
28546;DHT22;15749;49.606;8.738;2023-07-08T05:09:37;25.40;73.60
28546;DHT22;15749;49.606;8.738;2023-07-08T05:12:07;25.40;73.30
28546;DHT22;15749;49.606;8.738;2023-07-08T05:14:37;25.40;73.70
28546;DHT22;15749;49.606;8.738;2023-07-08T05:17:07;25.40;73.90
28546;DHT22;15749;49.606;8.738;2023-07-08T05:19:37;25.40;73.80
28546;DHT22;15749;49.606;8.738;2023-07-08T05:22:12;25.40;72.60
28546;DHT22;15749;49.606;8.738;2023-07-08T05:24:43;25.40;73.80
28546;DHT22;15749;49.606;8.738;2023-07-08T05:27:14;25.40;73.90
28546;DHT22;15749;49.606;8.738;2023-07-08T05:29:45;25.40;73.50
28546;DHT22;15749;49.606;8.738;2023-07-08T05:32:14;25.40;73.50
28546;DHT22;15749;49.606;8.738;2023-07-08T05:34:45;25.50;73.40
28546;DHT22;15749;49.606;8.738;2023-07-08T05:37:14;25.50;73.40
28546;DHT22;15749;49.606;8.738;2023-07-08T05:39:48;25.50;73.10
28546;DHT22;15749;49.606;8.738;2023-07-08T05:42:17;25.50;73.20
28546;DHT22;15749;49.606;8.738;2023-07-08T05:44:47;25.50;73.00
28546;DHT22;15749;49.606;8.738;2023-07-08T05:47:16;25.50;72.90
28546;DHT22;15749;49.606;8.738;2023-07-08T05:49:46;25.50;73.10
28546;DHT22;15749;49.606;8.738;2023-07-08T05:52:16;25.60;73.40
28546;DHT22;15749;49.606;8.738;2023-07-08T05:54:45;25.60;73.30
28546;DHT22;15749;49.606;8.738;2023-07-08T05:57:16;25.60;73.30
28546;DHT22;15749;49.606;8.738;2023-07-08T05:59:46;25.60;73.30
28546;DHT22;15749;49.606;8.738;2023-07-08T06:02:15;25.70;73.70
28546;DHT22;15749;49.606;8.738;2023-07-08T06:04:45;25.80;73.60
28546;DHT22;15749;49.606;8.738;2023-07-08T06:07:14;25.80;73.70
28546;DHT22;15749;49.606;8.738;2023-07-08T06:09:44;25.80;73.60
28546;DHT22;15749;49.606;8.738;2023-07-08T06:12:14;25.80;73.60
28546;DHT22;15749;49.606;8.738;2023-07-08T06:14:44;25.90;73.90
28546;DHT22;15749;49.606;8.738;2023-07-08T06:17:14;25.90;73.90
28546;DHT22;15749;49.606;8.738;2023-07-08T06:19:44;26.00;74.00
28546;DHT22;15749;49.606;8.738;2023-07-08T06:22:14;26.00;74.30
28546;DHT22;15749;49.606;8.738;2023-07-08T06:25:04;26.10;74.30
28546;DHT22;15749;49.606;8.738;2023-07-08T06:27:35;26.10;74.30
28546;DHT22;15749;49.606;8.738;2023-07-08T06:30:06;26.20;74.00
28546;DHT22;15749;49.606;8.738;2023-07-08T06:32:36;26.20;73.90
28546;DHT22;15749;49.606;8.738;2023-07-08T06:35:07;26.20;73.60
28546;DHT22;15749;49.606;8.738;2023-07-08T06:37:37;26.30;73.70
28546;DHT22;15749;49.606;8.738;2023-07-08T06:40:08;26.30;73.50
28546;DHT22;15749;49.606;8.738;2023-07-08T06:42:40;26.30;73.50
28546;DHT22;15749;49.606;8.738;2023-07-08T06:45:30;26.40;73.50
28546;DHT22;15749;49.606;8.738;2023-07-08T06:48:00;26.40;73.30
28546;DHT22;15749;49.606;8.738;2023-07-08T06:50:30;26.40;73.30
28546;DHT22;15749;49.606;8.738;2023-07-08T06:53:00;26.50;73.30
28546;DHT22;15749;49.606;8.738;2023-07-08T06:55:29;26.60;73.30
28546;DHT22;15749;49.606;8.738;2023-07-08T06:58:00;26.60;73.20
28546;DHT22;15749;49.606;8.738;2023-07-08T07:00:30;26.60;73.10
28546;DHT22;15749;49.606;8.738;2023-07-08T07:02:59;26.70;73.00
28546;DHT22;15749;49.606;8.738;2023-07-08T07:05:29;26.70;72.90
28546;DHT22;15749;49.606;8.738;2023-07-08T07:07:58;26.80;72.80
28546;DHT22;15749;49.606;8.738;2023-07-08T07:10:28;26.80;73.10
28546;DHT22;15749;49.606;8.738;2023-07-08T07:12:59;26.80;72.70
28546;DHT22;15749;49.606;8.738;2023-07-08T07:15:29;26.90;72.70
28546;DHT22;15749;49.606;8.738;2023-07-08T07:18:00;26.90;72.60
28546;DHT22;15749;49.606;8.738;2023-07-08T07:20:30;27.00;72.40
28546;DHT22;15749;49.606;8.738;2023-07-08T07:23:00;27.00;72.60
28546;DHT22;15749;49.606;8.738;2023-07-08T07:25:29;27.10;72.70
28546;DHT22;15749;49.606;8.738;2023-07-08T07:28:00;27.10;72.50
28546;DHT22;15749;49.606;8.738;2023-07-08T07:30:30;27.10;72.70
28546;DHT22;15749;49.606;8.738;2023-07-08T07:33:00;27.20;72.60
28546;DHT22;15749;49.606;8.738;2023-07-08T07:35:29;27.20;72.90
28546;DHT22;15749;49.606;8.738;2023-07-08T07:37:59;27.20;72.70
28546;DHT22;15749;49.606;8.738;2023-07-08T07:40:28;27.30;72.90
28546;DHT22;15749;49.606;8.738;2023-07-08T07:42:59;27.30;72.80
28546;DHT22;15749;49.606;8.738;2023-07-08T07:45:29;27.40;72.80
28546;DHT22;15749;49.606;8.738;2023-07-08T07:47:58;27.40;72.70
28546;DHT22;15749;49.606;8.738;2023-07-08T07:50:28;27.40;72.60
28546;DHT22;15749;49.606;8.738;2023-07-08T07:52:59;27.50;72.80
28546;DHT22;15749;49.606;8.738;2023-07-08T07:55:28;27.50;72.70
28546;DHT22;15749;49.606;8.738;2023-07-08T07:57:58;27.50;72.50
28546;DHT22;15749;49.606;8.738;2023-07-08T08:00:31;27.60;72.70
28546;DHT22;15749;49.606;8.738;2023-07-08T08:03:01;27.60;72.70
28546;DHT22;15749;49.606;8.738;2023-07-08T08:05:31;27.60;72.60
28546;DHT22;15749;49.606;8.738;2023-07-08T08:08:00;27.70;72.60
28546;DHT22;15749;49.606;8.738;2023-07-08T08:10:35;27.70;72.60
28546;DHT22;15749;49.606;8.738;2023-07-08T08:13:06;27.70;72.40
28546;DHT22;15749;49.606;8.738;2023-07-08T08:15:36;27.80;72.70
28546;DHT22;15749;49.606;8.738;2023-07-08T08:18:06;27.80;72.70
28546;DHT22;15749;49.606;8.738;2023-07-08T08:20:35;27.80;72.70
28546;DHT22;15749;49.606;8.738;2023-07-08T08:23:07;27.90;72.70
28546;DHT22;15749;49.606;8.738;2023-07-08T08:25:38;27.90;72.70
28546;DHT22;15749;49.606;8.738;2023-07-08T08:28:09;28.00;72.70
28546;DHT22;15749;49.606;8.738;2023-07-08T08:30:39;28.00;72.50
28546;DHT22;15749;49.606;8.738;2023-07-08T08:33:08;28.10;72.60
28546;DHT22;15749;49.606;8.738;2023-07-08T08:35:38;28.10;72.60
28546;DHT22;15749;49.606;8.738;2023-07-08T08:38:07;28.10;72.60
28546;DHT22;15749;49.606;8.738;2023-07-08T08:40:38;28.20;72.70
28546;DHT22;15749;49.606;8.738;2023-07-08T08:43:14;28.20;72.80
28546;DHT22;15749;49.606;8.738;2023-07-08T08:45:54;28.30;72.70
28546;DHT22;15749;49.606;8.738;2023-07-08T08:48:30;28.40;72.40
28546;DHT22;15749;49.606;8.738;2023-07-08T08:51:06;28.50;72.30
28546;DHT22;15749;49.606;8.738;2023-07-08T08:53:38;28.50;72.40
28546;DHT22;15749;49.606;8.738;2023-07-08T08:56:14;28.60;72.40
28546;DHT22;15749;49.606;8.738;2023-07-08T08:58:58;28.60;72.30
28546;DHT22;15749;49.606;8.738;2023-07-08T09:01:36;28.70;72.30
28546;DHT22;15749;49.606;8.738;2023-07-08T09:04:11;28.70;72.30
28546;DHT22;15749;49.606;8.738;2023-07-08T09:06:43;28.80;73.00
28546;DHT22;15749;49.606;8.738;2023-07-08T09:09:18;28.80;72.10
28546;DHT22;15749;49.606;8.738;2023-07-08T09:11:53;28.90;72.20
28546;DHT22;15749;49.606;8.738;2023-07-08T09:14:29;28.90;71.90
28546;DHT22;15749;49.606;8.738;2023-07-08T09:17:14;29.00;71.80
28546;DHT22;15749;49.606;8.738;2023-07-08T09:19:47;29.00;71.90
28546;DHT22;15749;49.606;8.738;2023-07-08T09:22:28;29.10;71.50
28546;DHT22;15749;49.606;8.738;2023-07-08T09:25:24;29.00;70.70
28546;DHT22;15749;49.606;8.738;2023-07-08T09:27:58;29.20;71.80
28546;DHT22;15749;49.606;8.738;2023-07-08T09:30:35;29.20;71.50
28546;DHT22;15749;49.606;8.738;2023-07-08T09:33:04;29.30;71.50
28546;DHT22;15749;49.606;8.738;2023-07-08T09:35:42;29.30;72.00
28546;DHT22;15749;49.606;8.738;2023-07-08T09:38:16;29.30;71.90
28546;DHT22;15749;49.606;8.738;2023-07-08T09:40:47;29.40;72.00
28546;DHT22;15749;49.606;8.738;2023-07-08T09:43:25;29.40;71.90
28546;DHT22;15749;49.606;8.738;2023-07-08T09:45:58;29.50;72.00
28546;DHT22;15749;49.606;8.738;2023-07-08T09:48:29;29.50;71.70
28546;DHT22;15749;49.606;8.738;2023-07-08T09:51:03;29.50;71.70
28546;DHT22;15749;49.606;8.738;2023-07-08T09:53:36;29.60;71.70
28546;DHT22;15749;49.606;8.738;2023-07-08T09:56:08;29.60;71.50
28546;DHT22;15749;49.606;8.738;2023-07-08T09:58:40;29.70;71.60
28546;DHT22;15749;49.606;8.738;2023-07-08T10:01:20;29.70;71.50
28546;DHT22;15749;49.606;8.738;2023-07-08T10:03:57;29.80;71.10
28546;DHT22;15749;49.606;8.738;2023-07-08T10:06:31;29.80;71.00
28546;DHT22;15749;49.606;8.738;2023-07-08T10:09:03;29.90;70.90
28546;DHT22;15749;49.606;8.738;2023-07-08T10:11:36;29.90;70.90
28546;DHT22;15749;49.606;8.738;2023-07-08T10:14:12;30.00;70.80
28546;DHT22;15749;49.606;8.738;2023-07-08T10:17:01;30.10;70.80
28546;DHT22;15749;49.606;8.738;2023-07-08T10:19:31;30.10;70.90
28546;DHT22;15749;49.606;8.738;2023-07-08T10:22:13;30.10;70.80
28546;DHT22;15749;49.606;8.738;2023-07-08T10:24:58;30.20;70.80
28546;DHT22;15749;49.606;8.738;2023-07-08T10:27:43;30.20;70.50
28546;DHT22;15749;49.606;8.738;2023-07-08T10:30:21;30.20;70.50
28546;DHT22;15749;49.606;8.738;2023-07-08T10:33:23;30.30;70.50
28546;DHT22;15749;49.606;8.738;2023-07-08T10:36:14;30.30;70.60
28546;DHT22;15749;49.606;8.738;2023-07-08T10:38:59;30.40;70.10
28546;DHT22;15749;49.606;8.738;2023-07-08T10:41:48;30.40;69.60
28546;DHT22;15749;49.606;8.738;2023-07-08T10:44:26;30.50;70.00
28546;DHT22;15749;49.606;8.738;2023-07-08T10:47:07;30.50;69.90
28546;DHT22;15749;49.606;8.738;2023-07-08T10:49:57;30.50;70.00
28546;DHT22;15749;49.606;8.738;2023-07-08T10:52:45;30.60;69.90
28546;DHT22;15749;49.606;8.738;2023-07-08T10:55:32;30.60;69.80
28546;DHT22;15749;49.606;8.738;2023-07-08T10:58:27;30.60;69.40
28546;DHT22;15749;49.606;8.738;2023-07-08T11:01:13;30.70;69.10
28546;DHT22;15749;49.606;8.738;2023-07-08T11:04:26;30.80;69.50
28546;DHT22;15749;49.606;8.738;2023-07-08T11:07:28;30.80;69.30
28546;DHT22;15749;49.606;8.738;2023-07-08T11:10:07;30.80;69.20
28546;DHT22;15749;49.606;8.738;2023-07-08T11:12:45;30.80;68.70
28546;DHT22;15749;49.606;8.738;2023-07-08T11:15:23;30.90;68.90
28546;DHT22;15749;49.606;8.738;2023-07-08T11:18:02;30.90;68.60
28546;DHT22;15749;49.606;8.738;2023-07-08T11:20:40;30.90;68.70
28546;DHT22;15749;49.606;8.738;2023-07-08T11:23:22;30.90;68.60
28546;DHT22;15749;49.606;8.738;2023-07-08T11:26:07;31.00;68.20
28546;DHT22;15749;49.606;8.738;2023-07-08T11:28:41;31.00;67.90
28546;DHT22;15749;49.606;8.738;2023-07-08T11:31:12;31.00;68.10
28546;DHT22;15749;49.606;8.738;2023-07-08T11:33:42;31.10;67.90
28546;DHT22;15749;49.606;8.738;2023-07-08T11:36:13;31.10;68.20
28546;DHT22;15749;49.606;8.738;2023-07-08T11:38:49;31.10;68.30
28546;DHT22;15749;49.606;8.738;2023-07-08T11:41:20;31.10;68.80
28546;DHT22;15749;49.606;8.738;2023-07-08T11:43:52;31.10;68.10
28546;DHT22;15749;49.606;8.738;2023-07-08T11:46:26;31.20;68.10
28546;DHT22;15749;49.606;8.738;2023-07-08T11:49:01;31.20;68.00
28546;DHT22;15749;49.606;8.738;2023-07-08T11:51:34;31.20;68.10
28546;DHT22;15749;49.606;8.738;2023-07-08T11:54:13;31.20;68.00
28546;DHT22;15749;49.606;8.738;2023-07-08T11:56:49;31.30;67.80
28546;DHT22;15749;49.606;8.738;2023-07-08T11:59:20;31.30;68.10
28546;DHT22;15749;49.606;8.738;2023-07-08T12:01:54;31.30;67.80
28546;DHT22;15749;49.606;8.738;2023-07-08T12:04:32;31.30;67.80
28546;DHT22;15749;49.606;8.738;2023-07-08T12:07:11;31.40;67.80
28546;DHT22;15749;49.606;8.738;2023-07-08T12:09:48;31.40;67.50
28546;DHT22;15749;49.606;8.738;2023-07-08T12:12:23;31.40;67.20
28546;DHT22;15749;49.606;8.738;2023-07-08T12:15:00;31.40;67.10
28546;DHT22;15749;49.606;8.738;2023-07-08T12:17:45;31.40;66.90
28546;DHT22;15749;49.606;8.738;2023-07-08T12:20:22;31.40;66.80
28546;DHT22;15749;49.606;8.738;2023-07-08T12:22:53;31.50;67.30
28546;DHT22;15749;49.606;8.738;2023-07-08T12:25:28;31.40;67.20
28546;DHT22;15749;49.606;8.738;2023-07-08T12:28:00;31.50;67.20
28546;DHT22;15749;49.606;8.738;2023-07-08T12:30:31;31.50;67.40
28546;DHT22;15749;49.606;8.738;2023-07-08T12:33:01;31.50;67.40
28546;DHT22;15749;49.606;8.738;2023-07-08T12:35:33;31.50;67.00
28546;DHT22;15749;49.606;8.738;2023-07-08T12:38:09;31.60;67.00
28546;DHT22;15749;49.606;8.738;2023-07-08T12:40:51;31.60;66.90
28546;DHT22;15749;49.606;8.738;2023-07-08T12:43:21;31.60;66.80
28546;DHT22;15749;49.606;8.738;2023-07-08T12:45:50;31.60;67.10
28546;DHT22;15749;49.606;8.738;2023-07-08T12:48:20;31.70;67.10
28546;DHT22;15749;49.606;8.738;2023-07-08T12:50:53;31.70;66.70
28546;DHT22;15749;49.606;8.738;2023-07-08T12:53:23;31.60;66.90
28546;DHT22;15749;49.606;8.738;2023-07-08T12:55:56;31.70;67.10
28546;DHT22;15749;49.606;8.738;2023-07-08T12:58:29;31.70;66.60
28546;DHT22;15749;49.606;8.738;2023-07-08T13:01:01;31.70;66.90
28546;DHT22;15749;49.606;8.738;2023-07-08T13:03:35;31.70;66.80
28546;DHT22;15749;49.606;8.738;2023-07-08T13:06:09;31.80;66.90
28546;DHT22;15749;49.606;8.738;2023-07-08T13:08:46;31.80;66.80
28546;DHT22;15749;49.606;8.738;2023-07-08T13:11:20;31.80;66.80
28546;DHT22;15749;49.606;8.738;2023-07-08T13:13:59;31.80;66.40
28546;DHT22;15749;49.606;8.738;2023-07-08T13:16:35;31.80;66.50
28546;DHT22;15749;49.606;8.738;2023-07-08T13:19:05;31.90;66.70
28546;DHT22;15749;49.606;8.738;2023-07-08T13:21:35;31.80;66.20
28546;DHT22;15749;49.606;8.738;2023-07-08T13:24:08;31.90;66.30
28546;DHT22;15749;49.606;8.738;2023-07-08T13:26:51;31.90;66.20
28546;DHT22;15749;49.606;8.738;2023-07-08T13:29:24;31.90;65.90
28546;DHT22;15749;49.606;8.738;2023-07-08T13:32:04;31.90;65.80
28546;DHT22;15749;49.606;8.738;2023-07-08T13:34:39;31.90;66.10
28546;DHT22;15749;49.606;8.738;2023-07-08T13:37:15;31.80;65.50
28546;DHT22;15749;49.606;8.738;2023-07-08T13:39:53;31.90;65.90
28546;DHT22;15749;49.606;8.738;2023-07-08T13:42:24;31.90;65.90
28546;DHT22;15749;49.606;8.738;2023-07-08T13:44:54;31.90;65.90
28546;DHT22;15749;49.606;8.738;2023-07-08T13:47:27;31.90;66.00
28546;DHT22;15749;49.606;8.738;2023-07-08T13:50:03;32.00;65.90
28546;DHT22;15749;49.606;8.738;2023-07-08T13:52:34;32.00;65.60
28546;DHT22;15749;49.606;8.738;2023-07-08T13:55:18;32.00;65.20
28546;DHT22;15749;49.606;8.738;2023-07-08T13:57:59;32.00;65.40
28546;DHT22;15749;49.606;8.738;2023-07-08T14:00:30;32.00;65.00
28546;DHT22;15749;49.606;8.738;2023-07-08T14:03:04;32.00;64.90
28546;DHT22;15749;49.606;8.738;2023-07-08T14:05:36;32.10;65.00
28546;DHT22;15749;49.606;8.738;2023-07-08T14:08:17;32.10;64.90
28546;DHT22;15749;49.606;8.738;2023-07-08T14:10:47;32.10;64.90
28546;DHT22;15749;49.606;8.738;2023-07-08T14:13:19;32.10;64.70
28546;DHT22;15749;49.606;8.738;2023-07-08T14:15:49;32.10;64.10
28546;DHT22;15749;49.606;8.738;2023-07-08T14:18:20;32.10;64.80
28546;DHT22;15749;49.606;8.738;2023-07-08T14:20:53;32.20;64.70
28546;DHT22;15749;49.606;8.738;2023-07-08T14:23:23;32.20;64.60
28546;DHT22;15749;49.606;8.738;2023-07-08T14:25:53;32.20;64.60
28546;DHT22;15749;49.606;8.738;2023-07-08T14:28:24;32.20;64.60
28546;DHT22;15749;49.606;8.738;2023-07-08T14:30:54;32.20;64.90
28546;DHT22;15749;49.606;8.738;2023-07-08T14:33:34;32.20;64.70
28546;DHT22;15749;49.606;8.738;2023-07-08T14:36:07;32.20;64.50
28546;DHT22;15749;49.606;8.738;2023-07-08T14:38:38;32.30;64.60
28546;DHT22;15749;49.606;8.738;2023-07-08T14:41:07;32.20;64.50
28546;DHT22;15749;49.606;8.738;2023-07-08T14:43:48;32.20;64.30
28546;DHT22;15749;49.606;8.738;2023-07-08T14:46:24;32.30;63.60
28546;DHT22;15749;49.606;8.738;2023-07-08T14:48:57;32.30;63.50
28546;DHT22;15749;49.606;8.738;2023-07-08T14:51:29;32.30;64.10
28546;DHT22;15749;49.606;8.738;2023-07-08T14:54:02;32.30;64.00
28546;DHT22;15749;49.606;8.738;2023-07-08T14:56:33;32.30;64.00
28546;DHT22;15749;49.606;8.738;2023-07-08T14:59:04;32.30;64.30
28546;DHT22;15749;49.606;8.738;2023-07-08T15:01:34;32.30;64.00
28546;DHT22;15749;49.606;8.738;2023-07-08T15:04:09;32.30;64.30
28546;DHT22;15749;49.606;8.738;2023-07-08T15:06:41;32.30;64.60
28546;DHT22;15749;49.606;8.738;2023-07-08T15:09:12;32.30;64.50
28546;DHT22;15749;49.606;8.738;2023-07-08T15:11:42;32.30;64.80
28546;DHT22;15749;49.606;8.738;2023-07-08T15:14:19;32.30;64.50
28546;DHT22;15749;49.606;8.738;2023-07-08T15:16:53;32.30;64.60
28546;DHT22;15749;49.606;8.738;2023-07-08T15:19:24;32.30;64.50
28546;DHT22;15749;49.606;8.738;2023-07-08T15:21:58;32.30;64.20
28546;DHT22;15749;49.606;8.738;2023-07-08T15:24:28;32.30;64.30
28546;DHT22;15749;49.606;8.738;2023-07-08T15:26:57;32.30;64.10
28546;DHT22;15749;49.606;8.738;2023-07-08T15:29:29;32.30;64.30
28546;DHT22;15749;49.606;8.738;2023-07-08T15:31:59;32.30;64.10
28546;DHT22;15749;49.606;8.738;2023-07-08T15:34:28;32.30;64.00
28546;DHT22;15749;49.606;8.738;2023-07-08T15:36:58;32.30;64.10
28546;DHT22;15749;49.606;8.738;2023-07-08T15:39:30;32.30;64.30
28546;DHT22;15749;49.606;8.738;2023-07-08T15:42:00;32.30;64.30
28546;DHT22;15749;49.606;8.738;2023-07-08T15:44:45;32.30;63.90
28546;DHT22;15749;49.606;8.738;2023-07-08T15:47:25;32.30;63.90
28546;DHT22;15749;49.606;8.738;2023-07-08T15:50:11;32.30;63.90
28546;DHT22;15749;49.606;8.738;2023-07-08T15:52:41;32.30;64.40
28546;DHT22;15749;49.606;8.738;2023-07-08T15:55:13;32.30;63.90
28546;DHT22;15749;49.606;8.738;2023-07-08T15:57:49;32.30;64.00
28546;DHT22;15749;49.606;8.738;2023-07-08T16:00:25;32.30;63.90
28546;DHT22;15749;49.606;8.738;2023-07-08T16:02:59;32.30;63.70
28546;DHT22;15749;49.606;8.738;2023-07-08T16:05:31;32.30;63.70
28546;DHT22;15749;49.606;8.738;2023-07-08T16:08:04;32.30;64.00